PAJN/JNU METAR and TAF weather

Enter ICAO airport designator
Station Type Date Time Source
PAJN METAR 2019/08/25 17:53 UTC NOAA

PAJN 251753Z 08011KT 10SM FEW003 SCT030 OVC037 13/11 A3010 RMK AO2 SLP191 PRESENT WX VCSH W 60000 T01280106 10128 20117 53018


Station Type Date Time Source
PAJN Decoded METAR 2019/08/25 17:53 UTC NOAA

Station name not available
Aug 25, 2019 - 01:53 PM EDT / 2019.08.25 1753 UTC
Wind: from the E (080 degrees) at 13 MPH (11 KT):0
Visibility: 10 mile(s):0
Sky conditions: overcast
Temperature: 55.0 F (12.8 C)
Dew Point: 51.1 F (10.6 C)
Relative Humidity: 86%
Pressure (altimeter): 30.1 in. Hg (1019 hPa)
Pressure tendency: 0.05 inches (1.8 hPa) higher than three hours ago
ob: PAJN 251753Z 08011KT 10SM FEW003 SCT030 OVC037 13/11 A3010 RMK AO2 SLP191 PRESENT WX VCSH W 60000 T01280106 10128 20117 53018
cycle: 18

Station Type Date Time Source
PAJN TAF 2019/08/25 18:45 UTC NOAA

TAF PAJN 251742Z 2518/2618 08008KT P6SM VCSH SCT010 BKN035 OVC060
TEMPO 2518/2522 5SM SHRA BR BKN025
FM252200 10010KT P6SM -SHRA SCT025 BKN035 OVC045
TEMPO 2522/2602 4SM +SHRA BR BKN025
FM260500 09009KT P6SM VCSH FEW015 BKN045 BKN100

Example: see airport list